sensor_id;sensor_type;location;lat;lon;timestamp;P1;durP1;ratioP1;P2;durP2;ratioP2
38859;SDS011;24609;48.316;16.174;2023-06-26T00:01:55;7.40;;;6.55;;
38859;SDS011;24609;48.316;16.174;2023-06-26T00:04:32;9.27;;;6.90;;
38859;SDS011;24609;48.316;16.174;2023-06-26T00:07:08;8.00;;;6.95;;
38859;SDS011;24609;48.316;16.174;2023-06-26T00:09:41;7.93;;;7.00;;
38859;SDS011;24609;48.316;16.174;2023-06-26T00:12:09;11.13;;;8.35;;
38859;SDS011;24609;48.316;16.174;2023-06-26T00:14:46;7.47;;;6.50;;
38859;SDS011;24609;48.316;16.174;2023-06-26T00:17:21;6.95;;;6.05;;
38859;SDS011;24609;48.316;16.174;2023-06-26T00:20:01;11.05;;;8.25;;
38859;SDS011;24609;48.316;16.174;2023-06-26T00:22:48;10.00;;;6.57;;
38859;SDS011;24609;48.316;16.174;2023-06-26T00:25:22;11.02;;;6.93;;
38859;SDS011;24609;48.316;16.174;2023-06-26T00:27:48;8.13;;;6.97;;
38859;SDS011;24609;48.316;16.174;2023-06-26T00:30:26;7.70;;;6.85;;
38859;SDS011;24609;48.316;16.174;2023-06-26T00:33:08;8.20;;;6.68;;
38859;SDS011;24609;48.316;16.174;2023-06-26T00:35:47;14.77;;;6.97;;
38859;SDS011;24609;48.316;16.174;2023-06-26T00:38:23;8.02;;;6.40;;
38859;SDS011;24609;48.316;16.174;2023-06-26T00:43:44;8.55;;;7.07;;
38859;SDS011;24609;48.316;16.174;2023-06-26T00:46:17;10.05;;;6.45;;
38859;SDS011;24609;48.316;16.174;2023-06-26T00:48:51;7.55;;;6.65;;
38859;SDS011;24609;48.316;16.174;2023-06-26T00:51:23;7.18;;;6.47;;
38859;SDS011;24609;48.316;16.174;2023-06-26T00:54:02;8.13;;;6.68;;
38859;SDS011;24609;48.316;16.174;2023-06-26T00:56:33;6.97;;;6.22;;
38859;SDS011;24609;48.316;16.174;2023-06-26T00:59:16;7.63;;;6.70;;
38859;SDS011;24609;48.316;16.174;2023-06-26T01:01:54;8.63;;;7.28;;
38859;SDS011;24609;48.316;16.174;2023-06-26T01:04:22;7.70;;;6.90;;
38859;SDS011;24609;48.316;16.174;2023-06-26T01:07:00;10.23;;;7.35;;
38859;SDS011;24609;48.316;16.174;2023-06-26T01:09:27;11.27;;;8.43;;
38859;SDS011;24609;48.316;16.174;2023-06-26T01:14:25;10.13;;;9.13;;
38859;SDS011;24609;48.316;16.174;2023-06-26T01:17:02;10.75;;;8.43;;
38859;SDS011;24609;48.316;16.174;2023-06-26T01:19:29;11.85;;;6.88;;
38859;SDS011;24609;48.316;16.174;2023-06-26T01:27:56;10.63;;;9.43;;
38859;SDS011;24609;48.316;16.174;2023-06-26T01:30:27;12.07;;;7.10;;
38859;SDS011;24609;48.316;16.174;2023-06-26T01:33:01;9.18;;;7.10;;
38859;SDS011;24609;48.316;16.174;2023-06-26T01:35:37;10.60;;;8.48;;
38859;SDS011;24609;48.316;16.174;2023-06-26T01:38:12;10.68;;;8.27;;
38859;SDS011;24609;48.316;16.174;2023-06-26T01:40:53;8.63;;;7.68;;
38859;SDS011;24609;48.316;16.174;2023-06-26T01:43:45;7.85;;;7.05;;
38859;SDS011;24609;48.316;16.174;2023-06-26T01:46:54;10.27;;;7.53;;
38859;SDS011;24609;48.316;16.174;2023-06-26T01:55:03;9.23;;;7.47;;
38859;SDS011;24609;48.316;16.174;2023-06-26T01:58:05;8.15;;;7.15;;
38859;SDS011;24609;48.316;16.174;2023-06-26T02:00:36;13.20;;;7.93;;
38859;SDS011;24609;48.316;16.174;2023-06-26T02:03:05;9.68;;;7.15;;
38859;SDS011;24609;48.316;16.174;2023-06-26T02:05:38;11.63;;;8.23;;
38859;SDS011;24609;48.316;16.174;2023-06-26T02:08:04;9.07;;;7.57;;
38859;SDS011;24609;48.316;16.174;2023-06-26T02:10:38;9.50;;;7.97;;
38859;SDS011;24609;48.316;16.174;2023-06-26T02:13:31;11.63;;;7.90;;
38859;SDS011;24609;48.316;16.174;2023-06-26T02:16:02;12.02;;;8.20;;
38859;SDS011;24609;48.316;16.174;2023-06-26T02:18:34;11.98;;;8.35;;
38859;SDS011;24609;48.316;16.174;2023-06-26T02:21:17;18.73;;;9.15;;
38859;SDS011;24609;48.316;16.174;2023-06-26T02:23:43;16.70;;;10.02;;
38859;SDS011;24609;48.316;16.174;2023-06-26T02:26:24;11.27;;;6.97;;
38859;SDS011;24609;48.316;16.174;2023-06-26T02:28:54;10.02;;;7.13;;
38859;SDS011;24609;48.316;16.174;2023-06-26T02:31:27;12.00;;;6.88;;
38859;SDS011;24609;48.316;16.174;2023-06-26T02:33:58;13.05;;;8.13;;
38859;SDS011;24609;48.316;16.174;2023-06-26T02:36:32;12.30;;;8.52;;
38859;SDS011;24609;48.316;16.174;2023-06-26T02:39:08;11.85;;;7.97;;
38859;SDS011;24609;48.316;16.174;2023-06-26T02:41:48;13.10;;;9.15;;
38859;SDS011;24609;48.316;16.174;2023-06-26T02:44:23;9.50;;;7.15;;
38859;SDS011;24609;48.316;16.174;2023-06-26T02:46:56;10.45;;;6.88;;
38859;SDS011;24609;48.316;16.174;2023-06-26T02:49:45;14.85;;;7.97;;
38859;SDS011;24609;48.316;16.174;2023-06-26T02:52:11;8.88;;;7.43;;
38859;SDS011;24609;48.316;16.174;2023-06-26T02:54:50;10.18;;;7.30;;
38859;SDS011;24609;48.316;16.174;2023-06-26T02:57:24;9.50;;;7.68;;
38859;SDS011;24609;48.316;16.174;2023-06-26T02:59:50;10.95;;;7.95;;
38859;SDS011;24609;48.316;16.174;2023-06-26T03:02:16;10.77;;;8.63;;
38859;SDS011;24609;48.316;16.174;2023-06-26T03:04:50;10.15;;;7.57;;
38859;SDS011;24609;48.316;16.174;2023-06-26T03:07:29;12.70;;;9.73;;
38859;SDS011;24609;48.316;16.174;2023-06-26T03:10:00;8.48;;;7.63;;
38859;SDS011;24609;48.316;16.174;2023-06-26T03:12:30;11.82;;;8.30;;
38859;SDS011;24609;48.316;16.174;2023-06-26T03:14:58;12.25;;;8.20;;
38859;SDS011;24609;48.316;16.174;2023-06-26T03:17:26;9.82;;;8.05;;
38859;SDS011;24609;48.316;16.174;2023-06-26T03:19:55;10.53;;;8.57;;
38859;SDS011;24609;48.316;16.174;2023-06-26T03:22:23;9.55;;;8.40;;
38859;SDS011;24609;48.316;16.174;2023-06-26T03:24:51;10.40;;;9.13;;
38859;SDS011;24609;48.316;16.174;2023-06-26T03:27:23;12.32;;;9.27;;
38859;SDS011;24609;48.316;16.174;2023-06-26T03:29:54;11.38;;;9.27;;
38859;SDS011;24609;48.316;16.174;2023-06-26T03:32:19;10.60;;;9.15;;
38859;SDS011;24609;48.316;16.174;2023-06-26T03:35:02;11.00;;;7.93;;
38859;SDS011;24609;48.316;16.174;2023-06-26T03:37:31;11.38;;;8.43;;
38859;SDS011;24609;48.316;16.174;2023-06-26T03:40:18;9.77;;;7.65;;
38859;SDS011;24609;48.316;16.174;2023-06-26T03:42:44;8.68;;;7.78;;
38859;SDS011;24609;48.316;16.174;2023-06-26T03:45:10;10.77;;;7.97;;
38859;SDS011;24609;48.316;16.174;2023-06-26T03:47:39;16.52;;;9.13;;
38859;SDS011;24609;48.316;16.174;2023-06-26T03:50:04;20.02;;;11.30;;
38859;SDS011;24609;48.316;16.174;2023-06-26T03:52:33;11.82;;;9.43;;
38859;SDS011;24609;48.316;16.174;2023-06-26T03:55:04;11.82;;;10.45;;
38859;SDS011;24609;48.316;16.174;2023-06-26T03:57:49;12.70;;;10.95;;
38859;SDS011;24609;48.316;16.174;2023-06-26T04:00:21;10.15;;;8.10;;
38859;SDS011;24609;48.316;16.174;2023-06-26T04:02:52;11.40;;;8.60;;
38859;SDS011;24609;48.316;16.174;2023-06-26T04:05:30;12.90;;;9.63;;
38859;SDS011;24609;48.316;16.174;2023-06-26T04:08:13;11.85;;;9.93;;
38859;SDS011;24609;48.316;16.174;2023-06-26T04:10:44;11.00;;;9.52;;
38859;SDS011;24609;48.316;16.174;2023-06-26T04:13:13;12.93;;;9.73;;
38859;SDS011;24609;48.316;16.174;2023-06-26T04:15:39;12.35;;;9.68;;
38859;SDS011;24609;48.316;16.174;2023-06-26T04:18:07;12.13;;;9.40;;
38859;SDS011;24609;48.316;16.174;2023-06-26T04:20:37;11.43;;;9.70;;
38859;SDS011;24609;48.316;16.174;2023-06-26T04:23:04;11.25;;;9.93;;
38859;SDS011;24609;48.316;16.174;2023-06-26T04:25:30;11.23;;;9.95;;
38859;SDS011;24609;48.316;16.174;2023-06-26T04:27:55;12.75;;;10.70;;
38859;SDS011;24609;48.316;16.174;2023-06-26T04:30:21;12.48;;;10.75;;
38859;SDS011;24609;48.316;16.174;2023-06-26T04:32:47;11.43;;;10.20;;
38859;SDS011;24609;48.316;16.174;2023-06-26T04:35:13;10.38;;;9.38;;
38859;SDS011;24609;48.316;16.174;2023-06-26T04:37:38;13.90;;;10.60;;
38859;SDS011;24609;48.316;16.174;2023-06-26T04:40:05;10.43;;;9.32;;
38859;SDS011;24609;48.316;16.174;2023-06-26T04:42:32;10.70;;;9.75;;
38859;SDS011;24609;48.316;16.174;2023-06-26T04:45:01;12.82;;;8.93;;
38859;SDS011;24609;48.316;16.174;2023-06-26T04:47:32;12.02;;;9.50;;
38859;SDS011;24609;48.316;16.174;2023-06-26T04:49:58;11.95;;;10.52;;
38859;SDS011;24609;48.316;16.174;2023-06-26T04:52:32;12.15;;;10.00;;
38859;SDS011;24609;48.316;16.174;2023-06-26T04:55:06;10.95;;;9.85;;
38859;SDS011;24609;48.316;16.174;2023-06-26T04:57:39;11.32;;;9.35;;
38859;SDS011;24609;48.316;16.174;2023-06-26T05:00:05;12.05;;;8.88;;
38859;SDS011;24609;48.316;16.174;2023-06-26T05:02:38;11.63;;;10.48;;
38859;SDS011;24609;48.316;16.174;2023-06-26T05:05:04;11.85;;;10.20;;
38859;SDS011;24609;48.316;16.174;2023-06-26T05:07:33;13.10;;;11.55;;
38859;SDS011;24609;48.316;16.174;2023-06-26T05:10:06;11.82;;;10.57;;
38859;SDS011;24609;48.316;16.174;2023-06-26T05:12:50;12.10;;;10.85;;
38859;SDS011;24609;48.316;16.174;2023-06-26T05:15:19;11.52;;;10.43;;
38859;SDS011;24609;48.316;16.174;2023-06-26T05:17:52;10.80;;;9.70;;
38859;SDS011;24609;48.316;16.174;2023-06-26T05:20:31;10.98;;;9.88;;
38859;SDS011;24609;48.316;16.174;2023-06-26T05:22:57;10.63;;;9.63;;
38859;SDS011;24609;48.316;16.174;2023-06-26T05:25:23;11.32;;;10.32;;
38859;SDS011;24609;48.316;16.174;2023-06-26T05:27:54;11.85;;;10.60;;
38859;SDS011;24609;48.316;16.174;2023-06-26T05:30:30;10.93;;;9.45;;
38859;SDS011;24609;48.316;16.174;2023-06-26T05:33:12;12.15;;;9.27;;
38859;SDS011;24609;48.316;16.174;2023-06-26T05:35:50;10.60;;;9.60;;
38859;SDS011;24609;48.316;16.174;2023-06-26T05:38:20;10.80;;;8.75;;
38859;SDS011;24609;48.316;16.174;2023-06-26T05:41:08;14.88;;;9.20;;
38859;SDS011;24609;48.316;16.174;2023-06-26T05:43:34;11.43;;;10.27;;
38859;SDS011;24609;48.316;16.174;2023-06-26T05:46:13;10.85;;;9.73;;
38859;SDS011;24609;48.316;16.174;2023-06-26T05:48:41;11.50;;;10.32;;
38859;SDS011;24609;48.316;16.174;2023-06-26T05:51:15;13.48;;;10.80;;
38859;SDS011;24609;48.316;16.174;2023-06-26T05:53:49;10.43;;;8.45;;
38859;SDS011;24609;48.316;16.174;2023-06-26T05:56:29;9.57;;;8.60;;
38859;SDS011;24609;48.316;16.174;2023-06-26T05:59:08;13.88;;;9.50;;
38859;SDS011;24609;48.316;16.174;2023-06-26T06:05:08;10.65;;;9.55;;
38859;SDS011;24609;48.316;16.174;2023-06-26T06:07:37;12.88;;;10.23;;
38859;SDS011;24609;48.316;16.174;2023-06-26T06:10:16;11.15;;;9.93;;
38859;SDS011;24609;48.316;16.174;2023-06-26T06:12:50;9.48;;;8.07;;
38859;SDS011;24609;48.316;16.174;2023-06-26T06:15:26;10.68;;;9.68;;
38859;SDS011;24609;48.316;16.174;2023-06-26T06:18:09;9.40;;;8.50;;
38859;SDS011;24609;48.316;16.174;2023-06-26T06:21:01;10.45;;;9.45;;
38859;SDS011;24609;48.316;16.174;2023-06-26T06:23:35;9.95;;;8.85;;
38859;SDS011;24609;48.316;16.174;2023-06-26T06:26:04;11.50;;;8.55;;
38859;SDS011;24609;48.316;16.174;2023-06-26T06:28:29;8.90;;;8.02;;
38859;SDS011;24609;48.316;16.174;2023-06-26T06:30:55;9.50;;;8.60;;
38859;SDS011;24609;48.316;16.174;2023-06-26T06:33:21;9.75;;;8.82;;
38859;SDS011;24609;48.316;16.174;2023-06-26T06:35:47;10.18;;;8.98;;
38859;SDS011;24609;48.316;16.174;2023-06-26T06:38:12;9.55;;;8.57;;
38859;SDS011;24609;48.316;16.174;2023-06-26T06:40:38;10.07;;;8.27;;
38859;SDS011;24609;48.316;16.174;2023-06-26T06:43:04;10.15;;;9.13;;
38859;SDS011;24609;48.316;16.174;2023-06-26T06:45:30;8.43;;;7.63;;
38859;SDS011;24609;48.316;16.174;2023-06-26T06:47:55;8.75;;;7.93;;
38859;SDS011;24609;48.316;16.174;2023-06-26T06:50:21;9.13;;;7.55;;
38859;SDS011;24609;48.316;16.174;2023-06-26T06:52:47;10.13;;;9.05;;
38859;SDS011;24609;48.316;16.174;2023-06-26T06:55:13;10.45;;;8.32;;
38859;SDS011;24609;48.316;16.174;2023-06-26T06:57:39;8.20;;;7.40;;
38859;SDS011;24609;48.316;16.174;2023-06-26T07:00:05;9.25;;;8.30;;
38859;SDS011;24609;48.316;16.174;2023-06-26T07:02:40;8.63;;;7.53;;
38859;SDS011;24609;48.316;16.174;2023-06-26T07:05:07;9.35;;;8.27;;
38859;SDS011;24609;48.316;16.174;2023-06-26T07:07:34;9.77;;;8.80;;
38859;SDS011;24609;48.316;16.174;2023-06-26T07:10:01;10.43;;;7.38;;
38859;SDS011;24609;48.316;16.174;2023-06-26T07:12:33;8.65;;;7.80;;
38859;SDS011;24609;48.316;16.174;2023-06-26T07:15:16;8.52;;;6.68;;
38859;SDS011;24609;48.316;16.174;2023-06-26T07:22:49;8.98;;;8.07;;
38859;SDS011;24609;48.316;16.174;2023-06-26T07:25:23;7.47;;;6.88;;
38859;SDS011;24609;48.316;16.174;2023-06-26T07:27:54;10.18;;;7.32;;
38859;SDS011;24609;48.316;16.174;2023-06-26T07:30:23;10.15;;;8.88;;
38859;SDS011;24609;48.316;16.174;2023-06-26T07:35:15;8.30;;;7.55;;
38859;SDS011;24609;48.316;16.174;2023-06-26T07:37:41;8.48;;;7.35;;
38859;SDS011;24609;48.316;16.174;2023-06-26T07:40:07;8.02;;;7.22;;
38859;SDS011;24609;48.316;16.174;2023-06-26T07:42:33;8.48;;;7.35;;
38859;SDS011;24609;48.316;16.174;2023-06-26T07:44:59;7.95;;;7.15;;
38859;SDS011;24609;48.316;16.174;2023-06-26T07:47:25;6.93;;;6.22;;
38859;SDS011;24609;48.316;16.174;2023-06-26T07:49:53;8.80;;;6.97;;
38859;SDS011;24609;48.316;16.174;2023-06-26T07:52:19;8.88;;;7.35;;
38859;SDS011;24609;48.316;16.174;2023-06-26T07:54:45;7.55;;;6.75;;
38859;SDS011;24609;48.316;16.174;2023-06-26T07:57:11;8.65;;;6.78;;
38859;SDS011;24609;48.316;16.174;2023-06-26T07:59:42;7.75;;;6.93;;
38859;SDS011;24609;48.316;16.174;2023-06-26T08:02:08;6.78;;;6.18;;
38859;SDS011;24609;48.316;16.174;2023-06-26T08:04:37;8.02;;;6.25;;
38859;SDS011;24609;48.316;16.174;2023-06-26T08:07:03;5.97;;;5.43;;
38859;SDS011;24609;48.316;16.174;2023-06-26T08:09:29;6.15;;;5.60;;
38859;SDS011;24609;48.316;16.174;2023-06-26T08:11:56;6.47;;;5.25;;
38859;SDS011;24609;48.316;16.174;2023-06-26T08:14:22;6.53;;;5.88;;
38859;SDS011;24609;48.316;16.174;2023-06-26T08:16:48;5.57;;;5.03;;
38859;SDS011;24609;48.316;16.174;2023-06-26T08:19:14;6.43;;;5.03;;
38859;SDS011;24609;48.316;16.174;2023-06-26T08:21:41;5.88;;;5.30;;
38859;SDS011;24609;48.316;16.174;2023-06-26T08:24:08;6.60;;;5.60;;
38859;SDS011;24609;48.316;16.174;2023-06-26T08:26:35;6.95;;;5.93;;
38859;SDS011;24609;48.316;16.174;2023-06-26T08:29:01;6.55;;;5.18;;
38859;SDS011;24609;48.316;16.174;2023-06-26T08:31:32;6.43;;;5.28;;
38859;SDS011;24609;48.316;16.174;2023-06-26T08:34:02;5.47;;;4.97;;
38859;SDS011;24609;48.316;16.174;2023-06-26T08:36:28;6.10;;;5.50;;
38859;SDS011;24609;48.316;16.174;2023-06-26T08:38:54;6.30;;;5.72;;
38859;SDS011;24609;48.316;16.174;2023-06-26T08:41:20;6.00;;;5.40;;
38859;SDS011;24609;48.316;16.174;2023-06-26T08:43:46;6.78;;;5.90;;
38859;SDS011;24609;48.316;16.174;2023-06-26T08:46:12;7.75;;;5.45;;
38859;SDS011;24609;48.316;16.174;2023-06-26T08:48:39;5.32;;;4.82;;
38859;SDS011;24609;48.316;16.174;2023-06-26T08:51:11;6.57;;;5.40;;
38859;SDS011;24609;48.316;16.174;2023-06-26T08:53:52;5.50;;;5.00;;
38859;SDS011;24609;48.316;16.174;2023-06-26T08:56:24;5.47;;;4.97;;
38859;SDS011;24609;48.316;16.174;2023-06-26T08:58:53;5.45;;;4.70;;
38859;SDS011;24609;48.316;16.174;2023-06-26T09:01:20;5.40;;;4.82;;
38859;SDS011;24609;48.316;16.174;2023-06-26T09:03:46;5.07;;;4.57;;
38859;SDS011;24609;48.316;16.174;2023-06-26T09:06:12;5.70;;;4.95;;
38859;SDS011;24609;48.316;16.174;2023-06-26T09:08:45;7.53;;;5.43;;
38859;SDS011;24609;48.316;16.174;2023-06-26T09:11:11;5.93;;;5.03;;
38859;SDS011;24609;48.316;16.174;2023-06-26T09:13:39;5.68;;;5.07;;
38859;SDS011;24609;48.316;16.174;2023-06-26T09:16:08;7.53;;;5.15;;
38859;SDS011;24609;48.316;16.174;2023-06-26T09:18:34;5.05;;;4.65;;
38859;SDS011;24609;48.316;16.174;2023-06-26T09:21:05;4.50;;;4.10;;
38859;SDS011;24609;48.316;16.174;2023-06-26T09:23:32;8.82;;;5.10;;
38859;SDS011;24609;48.316;16.174;2023-06-26T09:25:59;5.63;;;4.90;;
38859;SDS011;24609;48.316;16.174;2023-06-26T09:28:35;5.28;;;4.13;;
38859;SDS011;24609;48.316;16.174;2023-06-26T09:31:04;5.30;;;4.80;;
38859;SDS011;24609;48.316;16.174;2023-06-26T09:33:38;6.35;;;5.43;;
38859;SDS011;24609;48.316;16.174;2023-06-26T09:36:07;6.82;;;4.88;;
38859;SDS011;24609;48.316;16.174;2023-06-26T09:38:35;4.82;;;4.43;;
38859;SDS011;24609;48.316;16.174;2023-06-26T09:41:03;5.72;;;4.75;;
38859;SDS011;24609;48.316;16.174;2023-06-26T09:43:29;6.53;;;4.95;;
38859;SDS011;24609;48.316;16.174;2023-06-26T09:45:56;5.32;;;4.43;;
38859;SDS011;24609;48.316;16.174;2023-06-26T09:48:22;4.70;;;4.30;;
38859;SDS011;24609;48.316;16.174;2023-06-26T09:50:51;7.20;;;5.53;;
38859;SDS011;24609;48.316;16.174;2023-06-26T09:53:21;5.88;;;5.38;;
38859;SDS011;24609;48.316;16.174;2023-06-26T09:55:53;6.72;;;4.60;;
38859;SDS011;24609;48.316;16.174;2023-06-26T09:58:29;6.50;;;4.70;;
38859;SDS011;24609;48.316;16.174;2023-06-26T10:01:12;6.55;;;5.95;;
38859;SDS011;24609;48.316;16.174;2023-06-26T10:03:40;7.75;;;5.03;;
38859;SDS011;24609;48.316;16.174;2023-06-26T10:06:07;5.65;;;5.15;;
38859;SDS011;24609;48.316;16.174;2023-06-26T10:08:40;5.25;;;4.75;;
38859;SDS011;24609;48.316;16.174;2023-06-26T10:14:47;6.38;;;4.78;;
38859;SDS011;24609;48.316;16.174;2023-06-26T10:17:16;6.25;;;4.25;;
38859;SDS011;24609;48.316;16.174;2023-06-26T10:20:04;4.80;;;4.40;;
38859;SDS011;24609;48.316;16.174;2023-06-26T10:22:46;5.05;;;4.10;;
38859;SDS011;24609;48.316;16.174;2023-06-26T10:25:34;4.40;;;4.07;;
38859;SDS011;24609;48.316;16.174;2023-06-26T10:28:02;4.45;;;4.03;;
38859;SDS011;24609;48.316;16.174;2023-06-26T10:30:38;5.10;;;4.03;;
38859;SDS011;24609;48.316;16.174;2023-06-26T10:35:56;4.30;;;3.90;;
38859;SDS011;24609;48.316;16.174;2023-06-26T10:41:40;4.15;;;3.75;;
38859;SDS011;24609;48.316;16.174;2023-06-26T10:44:08;4.38;;;3.78;;
38859;SDS011;24609;48.316;16.174;2023-06-26T10:49:16;4.53;;;4.13;;
38859;SDS011;24609;48.316;16.174;2023-06-26T10:51:49;4.03;;;3.70;;
38859;SDS011;24609;48.316;16.174;2023-06-26T10:54:16;3.75;;;3.35;;
38859;SDS011;24609;48.316;16.174;2023-06-26T10:56:48;4.50;;;4.00;;
38859;SDS011;24609;48.316;16.174;2023-06-26T10:59:18;4.18;;;3.78;;
38859;SDS011;24609;48.316;16.174;2023-06-26T11:01:58;3.40;;;3.15;;
38859;SDS011;24609;48.316;16.174;2023-06-26T11:04:50;3.80;;;3.50;;
38859;SDS011;24609;48.316;16.174;2023-06-26T11:07:26;4.07;;;3.70;;
38859;SDS011;24609;48.316;16.174;2023-06-26T11:09:57;3.80;;;3.25;;
38859;SDS011;24609;48.316;16.174;2023-06-26T11:12:46;4.80;;;3.38;;
38859;SDS011;24609;48.316;16.174;2023-06-26T11:21:46;4.47;;;3.70;;
38859;SDS011;24609;48.316;16.174;2023-06-26T11:24:12;4.80;;;3.60;;
38859;SDS011;24609;48.316;16.174;2023-06-26T11:26:39;3.90;;;3.47;;
38859;SDS011;24609;48.316;16.174;2023-06-26T11:29:05;3.95;;;3.53;;
38859;SDS011;24609;48.316;16.174;2023-06-26T11:31:33;3.78;;;3.47;;
38859;SDS011;24609;48.316;16.174;2023-06-26T11:34:04;3.60;;;3.25;;
38859;SDS011;24609;48.316;16.174;2023-06-26T11:36:32;3.90;;;3.60;;
38859;SDS011;24609;48.316;16.174;2023-06-26T11:39:02;4.57;;;4.00;;
38859;SDS011;24609;48.316;16.174;2023-06-26T11:41:31;3.72;;;3.42;;
38859;SDS011;24609;48.316;16.174;2023-06-26T11:44:00;5.20;;;4.00;;
38859;SDS011;24609;48.316;16.174;2023-06-26T11:46:27;4.07;;;3.67;;
38859;SDS011;24609;48.316;16.174;2023-06-26T11:48:53;4.18;;;3.78;;
38859;SDS011;24609;48.316;16.174;2023-06-26T11:51:19;4.05;;;3.58;;
38859;SDS011;24609;48.316;16.174;2023-06-26T11:53:45;4.22;;;3.65;;
38859;SDS011;24609;48.316;16.174;2023-06-26T11:56:13;5.30;;;3.72;;
38859;SDS011;24609;48.316;16.174;2023-06-26T11:58:59;4.03;;;3.60;;
38859;SDS011;24609;48.316;16.174;2023-06-26T12:01:26;5.63;;;4.00;;
38859;SDS011;24609;48.316;16.174;2023-06-26T12:03:59;3.85;;;3.55;;
38859;SDS011;24609;48.316;16.174;2023-06-26T12:06:28;5.18;;;4.05;;
38859;SDS011;24609;48.316;16.174;2023-06-26T12:08:55;5.22;;;4.05;;
38859;SDS011;24609;48.316;16.174;2023-06-26T12:11:24;3.85;;;3.55;;
38859;SDS011;24609;48.316;16.174;2023-06-26T12:13:50;4.20;;;3.80;;
38859;SDS011;24609;48.316;16.174;2023-06-26T12:16:16;3.70;;;3.40;;
38859;SDS011;24609;48.316;16.174;2023-06-26T12:18:43;5.25;;;3.78;;
38859;SDS011;24609;48.316;16.174;2023-06-26T12:21:24;4.07;;;3.78;;
38859;SDS011;24609;48.316;16.174;2023-06-26T12:24:13;4.00;;;3.60;;
38859;SDS011;24609;48.316;16.174;2023-06-26T12:26:44;4.65;;;4.07;;
38859;SDS011;24609;48.316;16.174;2023-06-26T12:29:12;6.47;;;4.28;;
38859;SDS011;24609;48.316;16.174;2023-06-26T12:31:43;3.95;;;3.60;;
38859;SDS011;24609;48.316;16.174;2023-06-26T12:34:12;4.07;;;3.70;;
38859;SDS011;24609;48.316;16.174;2023-06-26T12:36:49;4.80;;;4.28;;
38859;SDS011;24609;48.316;16.174;2023-06-26T12:39:16;4.32;;;3.92;;
38859;SDS011;24609;48.316;16.174;2023-06-26T12:41:52;4.50;;;3.90;;
38859;SDS011;24609;48.316;16.174;2023-06-26T12:46:53;6.40;;;4.20;;
38859;SDS011;24609;48.316;16.174;2023-06-26T12:49:33;4.55;;;3.55;;
38859;SDS011;24609;48.316;16.174;2023-06-26T12:52:00;4.10;;;3.70;;
38859;SDS011;24609;48.316;16.174;2023-06-26T12:54:29;4.13;;;3.80;;
38859;SDS011;24609;48.316;16.174;2023-06-26T12:56:55;6.03;;;3.88;;
38859;SDS011;24609;48.316;16.174;2023-06-26T12:59:21;4.03;;;3.70;;
38859;SDS011;24609;48.316;16.174;2023-06-26T13:01:47;4.57;;;4.18;;
38859;SDS011;24609;48.316;16.174;2023-06-26T13:04:13;4.32;;;3.70;;
38859;SDS011;24609;48.316;16.174;2023-06-26T13:06:39;7.05;;;4.32;;
38859;SDS011;24609;48.316;16.174;2023-06-26T13:09:05;5.03;;;4.07;;
38859;SDS011;24609;48.316;16.174;2023-06-26T13:11:31;4.07;;;3.78;;
38859;SDS011;24609;48.316;16.174;2023-06-26T13:13:58;4.50;;;4.10;;
38859;SDS011;24609;48.316;16.174;2023-06-26T13:16:24;4.10;;;3.80;;
38859;SDS011;24609;48.316;16.174;2023-06-26T13:18:50;4.85;;;3.80;;
38859;SDS011;24609;48.316;16.174;2023-06-26T13:21:16;4.43;;;4.03;;
38859;SDS011;24609;48.316;16.174;2023-06-26T13:23:43;4.25;;;3.85;;
38859;SDS011;24609;48.316;16.174;2023-06-26T13:26:09;5.30;;;4.15;;
38859;SDS011;24609;48.316;16.174;2023-06-26T13:28:35;4.13;;;3.78;;
38859;SDS011;24609;48.316;16.174;2023-06-26T13:31:02;4.30;;;3.63;;
38859;SDS011;24609;48.316;16.174;2023-06-26T13:33:29;4.68;;;4.22;;
38859;SDS011;24609;48.316;16.174;2023-06-26T13:35:56;6.60;;;4.07;;
38859;SDS011;24609;48.316;16.174;2023-06-26T13:38:22;4.30;;;4.00;;
38859;SDS011;24609;48.316;16.174;2023-06-26T13:40:53;4.50;;;4.10;;
38859;SDS011;24609;48.316;16.174;2023-06-26T13:43:20;4.63;;;4.22;;
38859;SDS011;24609;48.316;16.174;2023-06-26T13:45:47;4.57;;;4.28;;
38859;SDS011;24609;48.316;16.174;2023-06-26T13:48:13;5.50;;;4.80;;
38859;SDS011;24609;48.316;16.174;2023-06-26T13:50:39;5.30;;;4.60;;
38859;SDS011;24609;48.316;16.174;2023-06-26T13:53:05;5.97;;;5.40;;
38859;SDS011;24609;48.316;16.174;2023-06-26T13:55:31;4.82;;;4.35;;
38859;SDS011;24609;48.316;16.174;2023-06-26T13:57:57;5.20;;;4.63;;
38859;SDS011;24609;48.316;16.174;2023-06-26T14:00:24;4.75;;;4.35;;
38859;SDS011;24609;48.316;16.174;2023-06-26T14:02:50;4.65;;;4.25;;
38859;SDS011;24609;48.316;16.174;2023-06-26T14:05:16;5.25;;;4.75;;
38859;SDS011;24609;48.316;16.174;2023-06-26T14:07:43;5.75;;;5.25;;
38859;SDS011;24609;48.316;16.174;2023-06-26T14:10:09;5.07;;;4.68;;
38859;SDS011;24609;48.316;16.174;2023-06-26T14:12:35;5.50;;;5.00;;
38859;SDS011;24609;48.316;16.174;2023-06-26T14:15:01;5.05;;;4.65;;
38859;SDS011;24609;48.316;16.174;2023-06-26T14:17:28;5.20;;;4.80;;
38859;SDS011;24609;48.316;16.174;2023-06-26T14:19:54;7.65;;;4.70;;
38859;SDS011;24609;48.316;16.174;2023-06-26T14:22:20;4.82;;;4.43;;
38859;SDS011;24609;48.316;16.174;2023-06-26T14:24:46;5.50;;;5.00;;
38859;SDS011;24609;48.316;16.174;2023-06-26T14:27:13;5.22;;;4.82;;
38859;SDS011;24609;48.316;16.174;2023-06-26T14:29:38;5.57;;;4.65;;
38859;SDS011;24609;48.316;16.174;2023-06-26T14:32:05;5.20;;;4.80;;
38859;SDS011;24609;48.316;16.174;2023-06-26T14:34:31;5.50;;;5.00;;
38859;SDS011;24609;48.316;16.174;2023-06-26T14:36:57;5.53;;;4.95;;
38859;SDS011;24609;48.316;16.174;2023-06-26T14:39:23;5.07;;;4.68;;
38859;SDS011;24609;48.316;16.174;2023-06-26T14:41:48;4.88;;;4.38;;
38859;SDS011;24609;48.316;16.174;2023-06-26T14:44:14;4.85;;;4.45;;
38859;SDS011;24609;48.316;16.174;2023-06-26T14:46:40;5.75;;;5.20;;
38859;SDS011;24609;48.316;16.174;2023-06-26T14:49:06;5.80;;;5.25;;
38859;SDS011;24609;48.316;16.174;2023-06-26T14:51:32;5.50;;;5.00;;
38859;SDS011;24609;48.316;16.174;2023-06-26T14:53:58;5.90;;;4.95;;
38859;SDS011;24609;48.316;16.174;2023-06-26T14:56:23;6.30;;;4.95;;
38859;SDS011;24609;48.316;16.174;2023-06-26T14:58:50;5.72;;;5.22;;
38859;SDS011;24609;48.316;16.174;2023-06-26T15:01:17;5.38;;;4.97;;
38859;SDS011;24609;48.316;16.174;2023-06-26T15:03:47;5.13;;;4.72;;
38859;SDS011;24609;48.316;16.174;2023-06-26T15:06:13;6.50;;;5.28;;
38859;SDS011;24609;48.316;16.174;2023-06-26T15:08:39;5.07;;;4.60;;
38859;SDS011;24609;48.316;16.174;2023-06-26T15:11:04;7.88;;;5.10;;
38859;SDS011;24609;48.316;16.174;2023-06-26T15:13:30;5.22;;;4.80;;
38859;SDS011;24609;48.316;16.174;2023-06-26T15:15:56;5.75;;;5.18;;
38859;SDS011;24609;48.316;16.174;2023-06-26T15:18:21;5.35;;;4.88;;
38859;SDS011;24609;48.316;16.174;2023-06-26T15:20:47;6.03;;;5.53;;
38859;SDS011;24609;48.316;16.174;2023-06-26T15:23:13;5.43;;;5.03;;
38859;SDS011;24609;48.316;16.174;2023-06-26T15:25:39;5.60;;;5.20;;
38859;SDS011;24609;48.316;16.174;2023-06-26T15:28:05;5.53;;;4.80;;
38859;SDS011;24609;48.316;16.174;2023-06-26T15:30:31;5.55;;;4.97;;
38859;SDS011;24609;48.316;16.174;2023-06-26T15:32:58;5.63;;;5.15;;
38859;SDS011;24609;48.316;16.174;2023-06-26T15:35:24;6.05;;;5.45;;
38859;SDS011;24609;48.316;16.174;2023-06-26T15:37:50;6.03;;;4.90;;